sensor_id;sensor_type;location;lat;lon;timestamp;temperature;humidity
28947;DHT22;16052;50.930;5.326;2022-10-16T00:01:11;15.20;99.90
28947;DHT22;16052;50.930;5.326;2022-10-16T00:03:39;15.30;99.90
28947;DHT22;16052;50.930;5.326;2022-10-16T00:06:05;15.20;99.90
28947;DHT22;16052;50.930;5.326;2022-10-16T00:08:31;15.30;99.90
28947;DHT22;16052;50.930;5.326;2022-10-16T00:11:02;15.30;99.90
28947;DHT22;16052;50.930;5.326;2022-10-16T00:13:29;15.40;99.90
28947;DHT22;16052;50.930;5.326;2022-10-16T00:15:56;15.40;99.90
28947;DHT22;16052;50.930;5.326;2022-10-16T00:18:22;15.30;99.90
28947;DHT22;16052;50.930;5.326;2022-10-16T00:20:48;15.20;99.90
28947;DHT22;16052;50.930;5.326;2022-10-16T00:23:14;15.40;99.90
28947;DHT22;16052;50.930;5.326;2022-10-16T00:25:40;15.30;99.90
28947;DHT22;16052;50.930;5.326;2022-10-16T00:28:06;15.30;99.90
28947;DHT22;16052;50.930;5.326;2022-10-16T00:30:32;15.20;99.90
28947;DHT22;16052;50.930;5.326;2022-10-16T00:32:57;15.20;99.90
28947;DHT22;16052;50.930;5.326;2022-10-16T00:35:23;15.20;99.90
28947;DHT22;16052;50.930;5.326;2022-10-16T00:37:49;15.40;99.90
28947;DHT22;16052;50.930;5.326;2022-10-16T00:40:15;15.40;99.90
28947;DHT22;16052;50.930;5.326;2022-10-16T00:42:41;15.50;99.90
28947;DHT22;16052;50.930;5.326;2022-10-16T00:45:08;15.50;99.90
28947;DHT22;16052;50.930;5.326;2022-10-16T00:47:41;15.40;99.90
28947;DHT22;16052;50.930;5.326;2022-10-16T00:50:30;15.40;99.90
28947;DHT22;16052;50.930;5.326;2022-10-16T00:52:58;15.30;99.90
28947;DHT22;16052;50.930;5.326;2022-10-16T00:55:27;15.40;99.90
28947;DHT22;16052;50.930;5.326;2022-10-16T00:57:56;15.20;99.90
28947;DHT22;16052;50.930;5.326;2022-10-16T01:00:25;14.90;99.90
28947;DHT22;16052;50.930;5.326;2022-10-16T01:02:54;14.90;99.90
28947;DHT22;16052;50.930;5.326;2022-10-16T01:05:22;14.90;99.90
28947;DHT22;16052;50.930;5.326;2022-10-16T01:08:13;14.80;99.90
28947;DHT22;16052;50.930;5.326;2022-10-16T01:11:06;14.80;99.90
28947;DHT22;16052;50.930;5.326;2022-10-16T01:13:42;14.80;99.90
28947;DHT22;16052;50.930;5.326;2022-10-16T01:16:30;15.00;99.90
28947;DHT22;16052;50.930;5.326;2022-10-16T01:19:14;15.00;99.90
28947;DHT22;16052;50.930;5.326;2022-10-16T01:21:44;15.20;99.90
28947;DHT22;16052;50.930;5.326;2022-10-16T01:24:33;15.00;99.90
28947;DHT22;16052;50.930;5.326;2022-10-16T01:27:07;14.80;99.90
28947;DHT22;16052;50.930;5.326;2022-10-16T01:29:56;14.60;99.90
28947;DHT22;16052;50.930;5.326;2022-10-16T01:32:31;14.80;99.90
28947;DHT22;16052;50.930;5.326;2022-10-16T01:35:18;14.90;99.90
28947;DHT22;16052;50.930;5.326;2022-10-16T01:40:24;14.90;99.90
28947;DHT22;16052;50.930;5.326;2022-10-16T01:43:01;14.90;99.90
28947;DHT22;16052;50.930;5.326;2022-10-16T01:45:29;15.00;99.90
28947;DHT22;16052;50.930;5.326;2022-10-16T01:47:58;14.70;99.90
28947;DHT22;16052;50.930;5.326;2022-10-16T01:50:26;14.70;99.90
28947;DHT22;16052;50.930;5.326;2022-10-16T01:52:55;14.80;99.90
28947;DHT22;16052;50.930;5.326;2022-10-16T01:55:29;14.80;99.90
28947;DHT22;16052;50.930;5.326;2022-10-16T01:57:57;14.80;99.90
28947;DHT22;16052;50.930;5.326;2022-10-16T02:00:26;14.80;99.90
28947;DHT22;16052;50.930;5.326;2022-10-16T02:02:53;14.80;99.90
28947;DHT22;16052;50.930;5.326;2022-10-16T02:07:48;14.80;99.90
28947;DHT22;16052;50.930;5.326;2022-10-16T02:10:15;14.80;99.90
28947;DHT22;16052;50.930;5.326;2022-10-16T02:12:57;14.80;99.90
28947;DHT22;16052;50.930;5.326;2022-10-16T02:15:25;14.70;99.90
28947;DHT22;16052;50.930;5.326;2022-10-16T02:17:51;14.80;99.90
28947;DHT22;16052;50.930;5.326;2022-10-16T02:20:18;14.70;99.90
28947;DHT22;16052;50.930;5.326;2022-10-16T02:22:49;14.60;99.90
28947;DHT22;16052;50.930;5.326;2022-10-16T02:25:22;14.70;99.90
28947;DHT22;16052;50.930;5.326;2022-10-16T02:30:33;14.80;99.90
28947;DHT22;16052;50.930;5.326;2022-10-16T02:33:02;14.60;99.90
28947;DHT22;16052;50.930;5.326;2022-10-16T02:35:30;14.70;99.90
28947;DHT22;16052;50.930;5.326;2022-10-16T02:37:57;14.50;99.90
28947;DHT22;16052;50.930;5.326;2022-10-16T02:40:24;14.60;99.90
28947;DHT22;16052;50.930;5.326;2022-10-16T02:42:52;14.80;99.90
28947;DHT22;16052;50.930;5.326;2022-10-16T02:45:19;14.80;99.90
28947;DHT22;16052;50.930;5.326;2022-10-16T02:47:45;14.90;99.90
28947;DHT22;16052;50.930;5.326;2022-10-16T02:50:12;14.80;99.90
28947;DHT22;16052;50.930;5.326;2022-10-16T02:52:38;14.90;99.90
28947;DHT22;16052;50.930;5.326;2022-10-16T02:55:04;14.80;99.90
28947;DHT22;16052;50.930;5.326;2022-10-16T02:57:29;14.60;99.90
28947;DHT22;16052;50.930;5.326;2022-10-16T02:59:56;14.60;99.90
28947;DHT22;16052;50.930;5.326;2022-10-16T03:02:22;14.70;99.90
28947;DHT22;16052;50.930;5.326;2022-10-16T03:04:47;14.70;99.90
28947;DHT22;16052;50.930;5.326;2022-10-16T03:07:13;14.80;99.90
28947;DHT22;16052;50.930;5.326;2022-10-16T03:09:39;14.70;99.90
28947;DHT22;16052;50.930;5.326;2022-10-16T03:12:04;14.70;99.90
28947;DHT22;16052;50.930;5.326;2022-10-16T03:14:32;14.50;99.90
28947;DHT22;16052;50.930;5.326;2022-10-16T03:16:58;14.50;99.90
28947;DHT22;16052;50.930;5.326;2022-10-16T03:19:24;14.50;99.90
28947;DHT22;16052;50.930;5.326;2022-10-16T03:21:50;14.60;99.90
28947;DHT22;16052;50.930;5.326;2022-10-16T03:24:16;14.70;99.90
28947;DHT22;16052;50.930;5.326;2022-10-16T03:26:41;14.70;99.90
28947;DHT22;16052;50.930;5.326;2022-10-16T03:29:09;14.70;99.90
28947;DHT22;16052;50.930;5.326;2022-10-16T03:31:36;14.50;99.90
28947;DHT22;16052;50.930;5.326;2022-10-16T03:34:02;14.50;99.90
28947;DHT22;16052;50.930;5.326;2022-10-16T03:36:28;14.50;99.90
28947;DHT22;16052;50.930;5.326;2022-10-16T03:38:54;14.50;99.90
28947;DHT22;16052;50.930;5.326;2022-10-16T03:41:22;14.60;99.90
28947;DHT22;16052;50.930;5.326;2022-10-16T03:43:48;14.60;99.90
28947;DHT22;16052;50.930;5.326;2022-10-16T03:46:15;14.60;99.90
28947;DHT22;16052;50.930;5.326;2022-10-16T03:48:40;14.60;99.90
28947;DHT22;16052;50.930;5.326;2022-10-16T03:51:07;14.60;99.90
28947;DHT22;16052;50.930;5.326;2022-10-16T03:53:33;14.60;99.90
28947;DHT22;16052;50.930;5.326;2022-10-16T03:55:59;14.60;99.90
28947;DHT22;16052;50.930;5.326;2022-10-16T03:58:25;14.60;99.90
28947;DHT22;16052;50.930;5.326;2022-10-16T04:00:51;14.70;99.90
28947;DHT22;16052;50.930;5.326;2022-10-16T04:03:16;14.70;99.90
28947;DHT22;16052;50.930;5.326;2022-10-16T04:05:44;14.70;99.90
28947;DHT22;16052;50.930;5.326;2022-10-16T04:08:10;14.60;99.90
28947;DHT22;16052;50.930;5.326;2022-10-16T04:10:35;14.50;99.90
28947;DHT22;16052;50.930;5.326;2022-10-16T04:13:02;14.60;99.90
28947;DHT22;16052;50.930;5.326;2022-10-16T04:15:28;14.70;99.90
28947;DHT22;16052;50.930;5.326;2022-10-16T04:17:53;14.70;99.90
28947;DHT22;16052;50.930;5.326;2022-10-16T04:20:19;14.80;99.90
28947;DHT22;16052;50.930;5.326;2022-10-16T04:22:45;14.60;99.90
28947;DHT22;16052;50.930;5.326;2022-10-16T04:25:11;14.60;99.90
28947;DHT22;16052;50.930;5.326;2022-10-16T04:27:37;14.20;99.90
28947;DHT22;16052;50.930;5.326;2022-10-16T04:30:04;14.20;99.90
28947;DHT22;16052;50.930;5.326;2022-10-16T04:32:31;14.30;99.90
28947;DHT22;16052;50.930;5.326;2022-10-16T04:34:56;14.40;99.90
28947;DHT22;16052;50.930;5.326;2022-10-16T04:37:26;14.40;99.90
28947;DHT22;16052;50.930;5.326;2022-10-16T04:39:55;14.50;99.90
28947;DHT22;16052;50.930;5.326;2022-10-16T04:42:21;14.30;99.90
28947;DHT22;16052;50.930;5.326;2022-10-16T04:44:46;14.30;99.90
28947;DHT22;16052;50.930;5.326;2022-10-16T04:47:12;14.30;99.90
28947;DHT22;16052;50.930;5.326;2022-10-16T04:49:38;14.40;99.90
28947;DHT22;16052;50.930;5.326;2022-10-16T04:52:04;14.20;99.90
28947;DHT22;16052;50.930;5.326;2022-10-16T04:54:30;14.20;99.90
28947;DHT22;16052;50.930;5.326;2022-10-16T04:56:55;14.10;99.90
28947;DHT22;16052;50.930;5.326;2022-10-16T04:59:21;14.20;99.90
28947;DHT22;16052;50.930;5.326;2022-10-16T05:01:47;14.30;99.90
28947;DHT22;16052;50.930;5.326;2022-10-16T05:04:13;14.30;99.90
28947;DHT22;16052;50.930;5.326;2022-10-16T05:06:40;14.20;99.90
28947;DHT22;16052;50.930;5.326;2022-10-16T05:09:06;14.30;99.90
28947;DHT22;16052;50.930;5.326;2022-10-16T05:11:33;14.30;99.90
28947;DHT22;16052;50.930;5.326;2022-10-16T05:14:00;14.30;99.90
28947;DHT22;16052;50.930;5.326;2022-10-16T05:16:26;14.30;99.90
28947;DHT22;16052;50.930;5.326;2022-10-16T05:18:51;14.30;99.90
28947;DHT22;16052;50.930;5.326;2022-10-16T05:21:17;14.20;99.90
28947;DHT22;16052;50.930;5.326;2022-10-16T05:23:44;14.20;99.90
28947;DHT22;16052;50.930;5.326;2022-10-16T05:26:11;14.20;99.90
28947;DHT22;16052;50.930;5.326;2022-10-16T05:28:37;14.40;99.90
28947;DHT22;16052;50.930;5.326;2022-10-16T05:31:07;14.30;99.90
28947;DHT22;16052;50.930;5.326;2022-10-16T05:33:33;14.30;99.90
28947;DHT22;16052;50.930;5.326;2022-10-16T05:36:07;14.40;99.90
28947;DHT22;16052;50.930;5.326;2022-10-16T05:38:34;14.50;99.90
28947;DHT22;16052;50.930;5.326;2022-10-16T05:41:00;14.40;99.90
28947;DHT22;16052;50.930;5.326;2022-10-16T05:43:27;14.40;99.90
28947;DHT22;16052;50.930;5.326;2022-10-16T05:46:06;14.40;99.90
28947;DHT22;16052;50.930;5.326;2022-10-16T05:48:31;14.30;99.90
28947;DHT22;16052;50.930;5.326;2022-10-16T05:53:24;14.40;99.90
28947;DHT22;16052;50.930;5.326;2022-10-16T05:55:53;14.50;99.90
28947;DHT22;16052;50.930;5.326;2022-10-16T05:58:19;14.50;99.90
28947;DHT22;16052;50.930;5.326;2022-10-16T06:00:44;14.50;99.90
28947;DHT22;16052;50.930;5.326;2022-10-16T06:03:10;14.40;99.90
28947;DHT22;16052;50.930;5.326;2022-10-16T06:05:35;14.40;99.90
28947;DHT22;16052;50.930;5.326;2022-10-16T06:08:01;14.50;99.90
28947;DHT22;16052;50.930;5.326;2022-10-16T06:10:27;14.50;99.90
28947;DHT22;16052;50.930;5.326;2022-10-16T06:12:54;14.50;99.90
28947;DHT22;16052;50.930;5.326;2022-10-16T06:15:19;14.40;99.90
28947;DHT22;16052;50.930;5.326;2022-10-16T06:17:45;14.40;99.90
28947;DHT22;16052;50.930;5.326;2022-10-16T06:20:11;14.40;99.90
28947;DHT22;16052;50.930;5.326;2022-10-16T06:22:36;14.40;99.90
28947;DHT22;16052;50.930;5.326;2022-10-16T06:25:02;14.40;99.90
28947;DHT22;16052;50.930;5.326;2022-10-16T06:27:28;14.60;99.90
28947;DHT22;16052;50.930;5.326;2022-10-16T06:29:55;14.50;99.90
28947;DHT22;16052;50.930;5.326;2022-10-16T06:32:20;14.40;99.90
28947;DHT22;16052;50.930;5.326;2022-10-16T06:34:47;14.40;99.90
28947;DHT22;16052;50.930;5.326;2022-10-16T06:37:12;14.50;99.90
28947;DHT22;16052;50.930;5.326;2022-10-16T06:39:38;14.60;99.90
28947;DHT22;16052;50.930;5.326;2022-10-16T06:42:04;14.50;99.90
28947;DHT22;16052;50.930;5.326;2022-10-16T06:44:29;14.60;99.90
28947;DHT22;16052;50.930;5.326;2022-10-16T06:46:55;14.60;99.90
28947;DHT22;16052;50.930;5.326;2022-10-16T06:49:22;14.70;99.90
28947;DHT22;16052;50.930;5.326;2022-10-16T06:51:48;14.60;99.90
28947;DHT22;16052;50.930;5.326;2022-10-16T06:54:15;14.60;99.90
28947;DHT22;16052;50.930;5.326;2022-10-16T06:56:43;14.40;99.90
28947;DHT22;16052;50.930;5.326;2022-10-16T06:59:08;14.40;99.90
28947;DHT22;16052;50.930;5.326;2022-10-16T07:01:34;14.40;99.90
28947;DHT22;16052;50.930;5.326;2022-10-16T07:04:01;14.30;99.90
28947;DHT22;16052;50.930;5.326;2022-10-16T07:06:31;14.30;99.90
28947;DHT22;16052;50.930;5.326;2022-10-16T07:08:57;14.50;99.90
28947;DHT22;16052;50.930;5.326;2022-10-16T07:11:23;14.50;99.90
28947;DHT22;16052;50.930;5.326;2022-10-16T07:13:51;14.60;99.90
28947;DHT22;16052;50.930;5.326;2022-10-16T07:16:20;14.70;99.90
28947;DHT22;16052;50.930;5.326;2022-10-16T07:18:46;14.40;99.90
28947;DHT22;16052;50.930;5.326;2022-10-16T07:21:19;14.40;99.90
28947;DHT22;16052;50.930;5.326;2022-10-16T07:23:58;14.50;99.90
28947;DHT22;16052;50.930;5.326;2022-10-16T07:26:24;14.50;99.90
28947;DHT22;16052;50.930;5.326;2022-10-16T07:28:51;14.60;99.90
28947;DHT22;16052;50.930;5.326;2022-10-16T07:31:19;14.70;99.90
28947;DHT22;16052;50.930;5.326;2022-10-16T07:33:46;14.70;99.90
28947;DHT22;16052;50.930;5.326;2022-10-16T07:36:15;14.70;99.90
28947;DHT22;16052;50.930;5.326;2022-10-16T07:38:42;14.80;99.90
28947;DHT22;16052;50.930;5.326;2022-10-16T07:41:14;15.00;99.90
28947;DHT22;16052;50.930;5.326;2022-10-16T07:43:44;15.10;99.90
28947;DHT22;16052;50.930;5.326;2022-10-16T07:46:10;15.10;99.90
28947;DHT22;16052;50.930;5.326;2022-10-16T07:48:36;15.10;99.90
28947;DHT22;16052;50.930;5.326;2022-10-16T07:51:06;15.30;99.90
28947;DHT22;16052;50.930;5.326;2022-10-16T07:53:33;15.40;99.90
28947;DHT22;16052;50.930;5.326;2022-10-16T07:55:59;15.30;99.90
28947;DHT22;16052;50.930;5.326;2022-10-16T07:58:27;15.40;99.90
28947;DHT22;16052;50.930;5.326;2022-10-16T08:00:53;15.50;99.90
28947;DHT22;16052;50.930;5.326;2022-10-16T08:03:18;15.60;99.90
28947;DHT22;16052;50.930;5.326;2022-10-16T08:05:45;15.70;99.90
28947;DHT22;16052;50.930;5.326;2022-10-16T08:08:15;15.70;99.90
28947;DHT22;16052;50.930;5.326;2022-10-16T08:10:41;15.90;99.90
28947;DHT22;16052;50.930;5.326;2022-10-16T08:13:07;16.00;99.90
28947;DHT22;16052;50.930;5.326;2022-10-16T08:15:32;16.10;99.90
28947;DHT22;16052;50.930;5.326;2022-10-16T08:18:00;16.20;99.90
28947;DHT22;16052;50.930;5.326;2022-10-16T08:20:27;16.20;99.90
28947;DHT22;16052;50.930;5.326;2022-10-16T08:22:53;16.10;99.90
28947;DHT22;16052;50.930;5.326;2022-10-16T08:25:20;16.10;99.90
28947;DHT22;16052;50.930;5.326;2022-10-16T08:27:46;16.20;99.90
28947;DHT22;16052;50.930;5.326;2022-10-16T08:30:13;16.30;99.90
28947;DHT22;16052;50.930;5.326;2022-10-16T08:32:39;16.40;99.90
28947;DHT22;16052;50.930;5.326;2022-10-16T08:35:09;16.50;99.90
28947;DHT22;16052;50.930;5.326;2022-10-16T08:37:35;16.50;99.90
28947;DHT22;16052;50.930;5.326;2022-10-16T08:40:01;16.60;99.90
28947;DHT22;16052;50.930;5.326;2022-10-16T08:45:21;16.80;99.90
28947;DHT22;16052;50.930;5.326;2022-10-16T08:51:04;17.00;99.90
28947;DHT22;16052;50.930;5.326;2022-10-16T08:53:53;17.10;99.90
28947;DHT22;16052;50.930;5.326;2022-10-16T08:56:20;17.20;99.90
28947;DHT22;16052;50.930;5.326;2022-10-16T08:58:46;17.30;99.90
28947;DHT22;16052;50.930;5.326;2022-10-16T09:01:15;17.30;99.90
28947;DHT22;16052;50.930;5.326;2022-10-16T09:12:32;17.20;99.90
28947;DHT22;16052;50.930;5.326;2022-10-16T09:18:07;17.20;99.90
28947;DHT22;16052;50.930;5.326;2022-10-16T09:20:38;17.30;99.90
28947;DHT22;16052;50.930;5.326;2022-10-16T09:23:27;17.50;99.90
28947;DHT22;16052;50.930;5.326;2022-10-16T09:25:54;17.60;99.90
28947;DHT22;16052;50.930;5.326;2022-10-16T09:28:21;17.70;99.90
28947;DHT22;16052;50.930;5.326;2022-10-16T09:30:47;17.80;99.90
28947;DHT22;16052;50.930;5.326;2022-10-16T09:33:24;17.70;99.90
28947;DHT22;16052;50.930;5.326;2022-10-16T09:35:53;17.70;99.90
28947;DHT22;16052;50.930;5.326;2022-10-16T09:38:33;17.80;99.90
28947;DHT22;16052;50.930;5.326;2022-10-16T09:41:02;17.90;99.90
28947;DHT22;16052;50.930;5.326;2022-10-16T09:43:41;18.10;99.90
28947;DHT22;16052;50.930;5.326;2022-10-16T09:46:29;18.20;99.90
28947;DHT22;16052;50.930;5.326;2022-10-16T09:49:00;18.30;99.90
28947;DHT22;16052;50.930;5.326;2022-10-16T09:51:29;18.10;99.90
28947;DHT22;16052;50.930;5.326;2022-10-16T09:54:17;18.00;99.90
28947;DHT22;16052;50.930;5.326;2022-10-16T09:56:41;18.00;99.90
28947;DHT22;16052;50.930;5.326;2022-10-16T09:59:15;17.90;99.90
28947;DHT22;16052;50.930;5.326;2022-10-16T10:01:50;17.90;99.90
28947;DHT22;16052;50.930;5.326;2022-10-16T10:04:19;18.00;99.90
28947;DHT22;16052;50.930;5.326;2022-10-16T10:11:50;18.20;99.90
28947;DHT22;16052;50.930;5.326;2022-10-16T10:16:44;18.20;99.90
28947;DHT22;16052;50.930;5.326;2022-10-16T10:19:23;18.30;99.90
28947;DHT22;16052;50.930;5.326;2022-10-16T10:21:50;18.30;99.50
28947;DHT22;16052;50.930;5.326;2022-10-16T10:24:18;18.30;99.90
28947;DHT22;16052;50.930;5.326;2022-10-16T10:26:56;18.40;98.50
28947;DHT22;16052;50.930;5.326;2022-10-16T10:34:54;18.80;98.20
28947;DHT22;16052;50.930;5.326;2022-10-16T10:38:07;18.80;96.20
28947;DHT22;16052;50.930;5.326;2022-10-16T10:41:03;18.80;95.70
28947;DHT22;16052;50.930;5.326;2022-10-16T10:44:06;18.70;96.90
28947;DHT22;16052;50.930;5.326;2022-10-16T10:46:41;18.60;99.70
28947;DHT22;16052;50.930;5.326;2022-10-16T10:52:18;18.60;99.90
28947;DHT22;16052;50.930;5.326;2022-10-16T11:09:11;18.90;95.20
28947;DHT22;16052;50.930;5.326;2022-10-16T11:11:47;19.00;95.50
28947;DHT22;16052;50.930;5.326;2022-10-16T11:14:19;19.10;92.70
28947;DHT22;16052;50.930;5.326;2022-10-16T11:16:53;19.10;92.20
28947;DHT22;16052;50.930;5.326;2022-10-16T11:19:28;19.00;94.00
28947;DHT22;16052;50.930;5.326;2022-10-16T11:22:04;19.10;92.50
28947;DHT22;16052;50.930;5.326;2022-10-16T11:24:55;19.10;93.50
28947;DHT22;16052;50.930;5.326;2022-10-16T11:30:23;19.30;90.90
28947;DHT22;16052;50.930;5.326;2022-10-16T11:35:43;19.20;88.80
28947;DHT22;16052;50.930;5.326;2022-10-16T11:40:48;19.30;90.00
28947;DHT22;16052;50.930;5.326;2022-10-16T11:43:32;19.40;86.10
28947;DHT22;16052;50.930;5.326;2022-10-16T11:46:05;19.40;88.60
28947;DHT22;16052;50.930;5.326;2022-10-16T11:48:47;19.40;88.30
28947;DHT22;16052;50.930;5.326;2022-10-16T11:56:24;19.50;89.20
28947;DHT22;16052;50.930;5.326;2022-10-16T11:59:11;19.60;81.20
28947;DHT22;16052;50.930;5.326;2022-10-16T12:01:56;19.70;87.60
28947;DHT22;16052;50.930;5.326;2022-10-16T12:04:25;19.60;83.30
28947;DHT22;16052;50.930;5.326;2022-10-16T12:07:36;19.50;83.90
28947;DHT22;16052;50.930;5.326;2022-10-16T12:10:26;19.40;83.30
28947;DHT22;16052;50.930;5.326;2022-10-16T12:12:52;19.20;83.20
28947;DHT22;16052;50.930;5.326;2022-10-16T12:15:29;19.20;84.40
28947;DHT22;16052;50.930;5.326;2022-10-16T12:17:56;19.40;83.60
28947;DHT22;16052;50.930;5.326;2022-10-16T12:22:56;19.40;87.00
28947;DHT22;16052;50.930;5.326;2022-10-16T12:25:35;19.40;88.50
28947;DHT22;16052;50.930;5.326;2022-10-16T12:28:19;19.50;78.30
28947;DHT22;16052;50.930;5.326;2022-10-16T12:30:59;19.50;75.50
28947;DHT22;16052;50.930;5.326;2022-10-16T12:36:29;19.60;75.10
28947;DHT22;16052;50.930;5.326;2022-10-16T12:38:55;19.70;77.70
28947;DHT22;16052;50.930;5.326;2022-10-16T12:41:30;19.80;76.50
28947;DHT22;16052;50.930;5.326;2022-10-16T12:43:56;20.00;76.00
28947;DHT22;16052;50.930;5.326;2022-10-16T12:51:42;19.80;78.70
28947;DHT22;16052;50.930;5.326;2022-10-16T12:54:39;19.80;81.20
28947;DHT22;16052;50.930;5.326;2022-10-16T13:00:28;20.10;75.80
28947;DHT22;16052;50.930;5.326;2022-10-16T13:09:13;19.80;78.30
28947;DHT22;16052;50.930;5.326;2022-10-16T13:17:12;19.90;71.70
28947;DHT22;16052;50.930;5.326;2022-10-16T13:20:11;19.70;76.70
28947;DHT22;16052;50.930;5.326;2022-10-16T13:28:06;19.60;80.20
28947;DHT22;16052;50.930;5.326;2022-10-16T13:31:00;19.50;82.50
28947;DHT22;16052;50.930;5.326;2022-10-16T13:33:36;19.50;82.50
28947;DHT22;16052;50.930;5.326;2022-10-16T13:36:03;19.50;84.40
28947;DHT22;16052;50.930;5.326;2022-10-16T13:38:34;19.60;83.20
28947;DHT22;16052;50.930;5.326;2022-10-16T13:43:34;19.50;81.70
28947;DHT22;16052;50.930;5.326;2022-10-16T13:46:13;19.40;86.40
28947;DHT22;16052;50.930;5.326;2022-10-16T13:48:39;19.50;78.20
28947;DHT22;16052;50.930;5.326;2022-10-16T13:53:38;19.40;83.40
28947;DHT22;16052;50.930;5.326;2022-10-16T13:56:07;19.50;83.50
28947;DHT22;16052;50.930;5.326;2022-10-16T13:58:35;19.50;82.20
28947;DHT22;16052;50.930;5.326;2022-10-16T14:01:05;19.90;75.70
28947;DHT22;16052;50.930;5.326;2022-10-16T14:03:32;19.90;79.60
28947;DHT22;16052;50.930;5.326;2022-10-16T14:06:04;19.80;82.20
28947;DHT22;16052;50.930;5.326;2022-10-16T14:08:32;19.80;74.40
28947;DHT22;16052;50.930;5.326;2022-10-16T14:10:59;19.70;78.70
28947;DHT22;16052;50.930;5.326;2022-10-16T14:13:30;19.70;79.10
28947;DHT22;16052;50.930;5.326;2022-10-16T14:15:57;19.80;77.10
28947;DHT22;16052;50.930;5.326;2022-10-16T14:18:27;19.80;77.70
28947;DHT22;16052;50.930;5.326;2022-10-16T14:20:53;19.80;77.00
28947;DHT22;16052;50.930;5.326;2022-10-16T14:25:48;19.80;78.40
28947;DHT22;16052;50.930;5.326;2022-10-16T14:28:20;20.00;73.70
28947;DHT22;16052;50.930;5.326;2022-10-16T14:30:58;20.20;70.80
28947;DHT22;16052;50.930;5.326;2022-10-16T14:38:40;20.10;68.20
28947;DHT22;16052;50.930;5.326;2022-10-16T14:41:07;20.00;69.60
28947;DHT22;16052;50.930;5.326;2022-10-16T14:43:40;20.10;67.00
28947;DHT22;16052;50.930;5.326;2022-10-16T14:46:13;20.10;64.90
28947;DHT22;16052;50.930;5.326;2022-10-16T14:48:47;20.10;64.90
28947;DHT22;16052;50.930;5.326;2022-10-16T14:51:16;20.00;65.50
28947;DHT22;16052;50.930;5.326;2022-10-16T14:53:42;20.10;61.20
28947;DHT22;16052;50.930;5.326;2022-10-16T14:56:29;20.00;59.80
28947;DHT22;16052;50.930;5.326;2022-10-16T14:58:55;20.00;61.00
28947;DHT22;16052;50.930;5.326;2022-10-16T15:01:21;20.00;62.10
28947;DHT22;16052;50.930;5.326;2022-10-16T15:03:47;20.10;64.10
28947;DHT22;16052;50.930;5.326;2022-10-16T15:06:15;20.00;65.70
28947;DHT22;16052;50.930;5.326;2022-10-16T15:08:41;20.10;64.90
28947;DHT22;16052;50.930;5.326;2022-10-16T15:11:18;20.10;65.70
28947;DHT22;16052;50.930;5.326;2022-10-16T15:13:47;20.10;67.80
28947;DHT22;16052;50.930;5.326;2022-10-16T15:16:16;20.00;67.50
28947;DHT22;16052;50.930;5.326;2022-10-16T15:18:42;20.10;68.60
28947;DHT22;16052;50.930;5.326;2022-10-16T15:21:12;20.10;68.70
28947;DHT22;16052;50.930;5.326;2022-10-16T15:23:42;20.10;69.10
28947;DHT22;16052;50.930;5.326;2022-10-16T15:26:08;20.40;61.70
28947;DHT22;16052;50.930;5.326;2022-10-16T15:28:34;20.30;64.80
28947;DHT22;16052;50.930;5.326;2022-10-16T15:31:04;20.20;68.50
28947;DHT22;16052;50.930;5.326;2022-10-16T15:33:30;20.20;67.40
28947;DHT22;16052;50.930;5.326;2022-10-16T15:35:59;20.20;69.00
28947;DHT22;16052;50.930;5.326;2022-10-16T15:38:26;20.20;70.30
28947;DHT22;16052;50.930;5.326;2022-10-16T15:40:54;20.30;64.70
28947;DHT22;16052;50.930;5.326;2022-10-16T15:43:19;20.20;66.50
28947;DHT22;16052;50.930;5.326;2022-10-16T15:46:05;20.10;69.50
28947;DHT22;16052;50.930;5.326;2022-10-16T15:48:32;20.20;70.40
28947;DHT22;16052;50.930;5.326;2022-10-16T15:50:59;20.10;72.00
28947;DHT22;16052;50.930;5.326;2022-10-16T15:53:26;20.10;72.80
28947;DHT22;16052;50.930;5.326;2022-10-16T15:55:51;20.00;75.80
28947;DHT22;16052;50.930;5.326;2022-10-16T15:58:17;19.90;76.90
28947;DHT22;16052;50.930;5.326;2022-10-16T16:00:43;19.90;78.30
28947;DHT22;16052;50.930;5.326;2022-10-16T16:03:09;19.90;81.30
28947;DHT22;16052;50.930;5.326;2022-10-16T16:05:38;19.80;82.80
28947;DHT22;16052;50.930;5.326;2022-10-16T16:08:03;19.90;82.00
28947;DHT22;16052;50.930;5.326;2022-10-16T16:10:29;20.00;80.80
28947;DHT22;16052;50.930;5.326;2022-10-16T16:12:56;20.00;81.60
28947;DHT22;16052;50.930;5.326;2022-10-16T16:15:22;20.00;82.90
28947;DHT22;16052;50.930;5.326;2022-10-16T16:17:48;19.90;82.90
28947;DHT22;16052;50.930;5.326;2022-10-16T16:20:14;20.00;81.70
28947;DHT22;16052;50.930;5.326;2022-10-16T16:22:40;20.00;79.90
28947;DHT22;16052;50.930;5.326;2022-10-16T16:25:07;20.00;80.00
28947;DHT22;16052;50.930;5.326;2022-10-16T16:27:35;20.10;78.20
28947;DHT22;16052;50.930;5.326;2022-10-16T16:30:02;20.10;78.30
28947;DHT22;16052;50.930;5.326;2022-10-16T16:32:30;20.10;74.10
28947;DHT22;16052;50.930;5.326;2022-10-16T16:35:24;20.10;73.90
28947;DHT22;16052;50.930;5.326;2022-10-16T16:37:50;20.10;74.20
28947;DHT22;16052;50.930;5.326;2022-10-16T16:40:31;20.00;74.30
28947;DHT22;16052;50.930;5.326;2022-10-16T16:42:57;20.00;75.30
28947;DHT22;16052;50.930;5.326;2022-10-16T16:45:22;19.90;76.70
28947;DHT22;16052;50.930;5.326;2022-10-16T16:47:50;20.00;76.90
28947;DHT22;16052;50.930;5.326;2022-10-16T16:50:17;19.90;77.40
28947;DHT22;16052;50.930;5.326;2022-10-16T16:52:43;20.00;78.00
28947;DHT22;16052;50.930;5.326;2022-10-16T16:55:08;20.00;77.10
28947;DHT22;16052;50.930;5.326;2022-10-16T16:57:34;20.00;78.10
28947;DHT22;16052;50.930;5.326;2022-10-16T17:00:00;19.90;83.20
28947;DHT22;16052;50.930;5.326;2022-10-16T17:02:25;20.10;82.20
28947;DHT22;16052;50.930;5.326;2022-10-16T17:04:51;19.90;84.20
28947;DHT22;16052;50.930;5.326;2022-10-16T17:07:17;19.90;87.20
28947;DHT22;16052;50.930;5.326;2022-10-16T17:09:42;19.90;87.80
28947;DHT22;16052;50.930;5.326;2022-10-16T17:12:10;20.00;90.10
28947;DHT22;16052;50.930;5.326;2022-10-16T17:14:36;19.80;90.60
28947;DHT22;16052;50.930;5.326;2022-10-16T17:17:01;20.00;90.80
28947;DHT22;16052;50.930;5.326;2022-10-16T17:19:27;20.20;88.60
28947;DHT22;16052;50.930;5.326;2022-10-16T17:21:53;20.20;88.90
28947;DHT22;16052;50.930;5.326;2022-10-16T17:24:19;19.90;90.90
28947;DHT22;16052;50.930;5.326;2022-10-16T17:26:45;19.80;92.70
28947;DHT22;16052;50.930;5.326;2022-10-16T17:29:14;19.80;93.20
28947;DHT22;16052;50.930;5.326;2022-10-16T17:31:40;19.70;94.00
28947;DHT22;16052;50.930;5.326;2022-10-16T17:34:07;19.60;95.30
28947;DHT22;16052;50.930;5.326;2022-10-16T17:36:35;19.50;96.50
28947;DHT22;16052;50.930;5.326;2022-10-16T17:39:04;19.50;96.30
28947;DHT22;16052;50.930;5.326;2022-10-16T17:41:32;19.50;97.20